createdAt,value
2022-10-18T00:01:51.165Z,3.97
2022-10-18T00:04:18.322Z,3.97
2022-10-18T00:06:45.395Z,4.20
2022-10-18T00:09:12.499Z,3.65
2022-10-18T00:11:39.606Z,6.93
2022-10-18T00:14:06.836Z,8.52
2022-10-18T00:16:33.907Z,6.78
2022-10-18T00:19:00.958Z,7.13
2022-10-18T00:21:28.092Z,7.50
2022-10-18T00:23:55.267Z,6.90
2022-10-18T00:26:26.920Z,5.00
2022-10-18T00:28:55.172Z,5.78
2022-10-18T00:31:25.172Z,6.38
2022-10-18T00:33:53.541Z,6.22
2022-10-18T00:36:21.021Z,5.68
2022-10-18T00:38:48.633Z,6.32
2022-10-18T00:41:17.773Z,5.50
2022-10-18T00:44:01.418Z,5.28
2022-10-18T00:46:30.077Z,5.20
2022-10-18T00:48:58.355Z,4.88
2022-10-18T00:51:27.596Z,5.15
2022-10-18T00:53:54.821Z,4.75
2022-10-18T00:56:22.238Z,4.95
2022-10-18T00:58:49.821Z,4.82
2022-10-18T01:01:16.989Z,5.05
2022-10-18T01:03:44.211Z,4.50
2022-10-18T01:06:11.314Z,4.53
2022-10-18T01:08:46.570Z,4.55
2022-10-18T01:11:16.476Z,5.00
2022-10-18T01:13:49.588Z,4.65
2022-10-18T01:16:35.246Z,4.70
2022-10-18T01:19:14.535Z,4.20
2022-10-18T01:21:48.834Z,4.80
2022-10-18T01:24:30.231Z,4.13
2022-10-18T01:27:06.364Z,4.90
2022-10-18T01:29:42.747Z,5.05
2022-10-18T01:32:17.858Z,4.35
2022-10-18T01:34:46.695Z,4.40
2022-10-18T01:37:15.721Z,4.55
2022-10-18T01:39:44.319Z,4.65
2022-10-18T01:42:13.101Z,4.45
2022-10-18T01:44:40.732Z,4.20
2022-10-18T01:47:10.043Z,4.80
2022-10-18T01:49:37.287Z,4.63
2022-10-18T01:52:04.499Z,4.82
2022-10-18T01:54:36.645Z,4.35
2022-10-18T01:57:11.371Z,4.70
2022-10-18T01:59:53.096Z,4.80
2022-10-18T02:02:34.535Z,4.45
2022-10-18T02:05:15.255Z,5.10
2022-10-18T02:08:22.095Z,5.03
2022-10-18T02:10:51.889Z,3.92
2022-10-18T02:13:20.427Z,4.90
2022-10-18T02:15:49.162Z,5.60
2022-10-18T02:18:24.211Z,4.30
2022-10-18T02:20:52.057Z,4.65
2022-10-18T02:23:21.906Z,4.30
2022-10-18T02:25:49.134Z,4.97
2022-10-18T02:28:16.382Z,4.88
2022-10-18T02:30:58.821Z,5.03
2022-10-18T02:33:39.191Z,4.32
2022-10-18T02:36:13.231Z,4.25
2022-10-18T02:38:42.418Z,4.72
2022-10-18T02:41:09.478Z,4.88
2022-10-18T02:43:36.594Z,5.00
2022-10-18T02:46:03.879Z,4.80
2022-10-18T02:48:30.982Z,3.92
2022-10-18T02:50:58.071Z,4.05
2022-10-18T02:53:25.184Z,5.18
2022-10-18T02:55:52.306Z,4.72
2022-10-18T02:58:19.400Z,4.45
2022-10-18T03:00:46.472Z,4.15
2022-10-18T03:03:13.592Z,5.03
2022-10-18T03:05:40.654Z,5.10
2022-10-18T03:08:07.754Z,5.00
2022-10-18T03:10:34.972Z,5.03
2022-10-18T03:13:02.209Z,4.97
2022-10-18T03:15:29.286Z,5.35
2022-10-18T03:17:56.374Z,4.47
2022-10-18T03:20:23.561Z,5.00
2022-10-18T03:22:50.650Z,5.20
2022-10-18T03:25:17.767Z,5.25
2022-10-18T03:27:44.825Z,5.50
2022-10-18T03:30:13.322Z,5.25
2022-10-18T03:32:41.054Z,5.45
2022-10-18T03:35:09.262Z,5.25
2022-10-18T03:37:36.642Z,5.43
2022-10-18T03:40:04.354Z,5.30
2022-10-18T03:42:31.619Z,5.20
2022-10-18T03:44:58.926Z,5.05
2022-10-18T03:47:26.232Z,5.30
2022-10-18T03:49:56.292Z,4.80
2022-10-18T03:52:24.482Z,5.55
2022-10-18T03:54:51.614Z,5.35
2022-10-18T03:57:18.699Z,5.45
2022-10-18T03:59:45.756Z,5.13
2022-10-18T04:02:12.821Z,5.50
2022-10-18T04:04:39.884Z,5.78
2022-10-18T04:07:06.988Z,6.03
2022-10-18T04:09:34.074Z,5.78
2022-10-18T04:12:01.168Z,5.50
2022-10-18T04:14:28.335Z,6.38
2022-10-18T04:16:55.423Z,6.05
2022-10-18T04:19:22.497Z,5.13
2022-10-18T04:21:49.559Z,5.65
2022-10-18T04:24:19.660Z,6.03
2022-10-18T04:26:46.764Z,5.85
2022-10-18T04:29:13.857Z,5.68
2022-10-18T04:31:40.898Z,5.68
2022-10-18T04:34:08.031Z,7.40
2022-10-18T04:36:35.442Z,5.97
2022-10-18T04:39:02.603Z,5.75
2022-10-18T04:41:29.863Z,5.65
2022-10-18T04:43:56.922Z,5.90
2022-10-18T04:46:24.002Z,5.80
2022-10-18T04:48:51.076Z,5.45
2022-10-18T04:51:18.192Z,5.53
2022-10-18T04:53:45.485Z,5.72
2022-10-18T04:56:12.570Z,5.25
2022-10-18T04:58:39.638Z,5.50
2022-10-18T05:01:07.391Z,5.00
2022-10-18T05:03:34.847Z,5.75
2022-10-18T05:06:03.089Z,5.97
2022-10-18T05:08:31.170Z,4.93
2022-10-18T05:10:58.496Z,5.03
2022-10-18T05:13:25.787Z,5.05
2022-10-18T05:15:52.944Z,4.57
2022-10-18T05:18:20.078Z,3.78
2022-10-18T05:20:47.214Z,3.22
2022-10-18T05:23:14.296Z,3.38
2022-10-18T05:25:42.233Z,3.30
2022-10-18T05:28:15.625Z,2.80
2022-10-18T05:30:48.285Z,3.40
2022-10-18T05:33:15.378Z,3.17
2022-10-18T05:35:42.432Z,3.20
2022-10-18T05:38:09.534Z,3.13
2022-10-18T05:40:39.350Z,2.72
2022-10-18T05:43:06.520Z,3.03
2022-10-18T05:45:33.594Z,3.20
2022-10-18T05:48:00.704Z,2.88
2022-10-18T05:50:27.836Z,3.30
2022-10-18T05:53:06.901Z,3.13
2022-10-18T05:55:45.469Z,3.03
2022-10-18T05:58:12.539Z,3.67
2022-10-18T06:00:39.675Z,3.25
2022-10-18T06:03:06.890Z,3.38
2022-10-18T06:05:34.042Z,3.20
2022-10-18T06:08:01.576Z,2.90
2022-10-18T06:10:29.594Z,3.20
2022-10-18T06:12:56.702Z,3.20
2022-10-18T06:15:23.802Z,3.20
2022-10-18T06:17:50.904Z,3.58
2022-10-18T06:20:18.030Z,3.35
2022-10-18T06:22:45.082Z,3.03
2022-10-18T06:25:12.166Z,3.03
2022-10-18T06:27:39.261Z,3.00
2022-10-18T06:30:06.622Z,3.38
2022-10-18T06:32:33.724Z,2.97
2022-10-18T06:35:00.815Z,3.00
2022-10-18T06:37:30.468Z,3.05
2022-10-18T06:39:57.902Z,3.53
2022-10-18T06:42:25.072Z,3.70
2022-10-18T06:44:52.131Z,3.40
2022-10-18T06:47:19.226Z,3.33
2022-10-18T06:49:46.319Z,3.60
2022-10-18T06:52:13.391Z,3.28
2022-10-18T06:54:40.462Z,3.05
2022-10-18T06:57:07.599Z,3.17
2022-10-18T06:59:34.678Z,3.15
2022-10-18T07:02:01.906Z,3.03
2022-10-18T07:04:30.367Z,3.08
2022-10-18T07:06:57.510Z,2.60
2022-10-18T07:09:24.592Z,3.30
2022-10-18T07:11:52.868Z,2.90
2022-10-18T07:14:19.953Z,3.08
2022-10-18T07:16:47.070Z,2.90
2022-10-18T07:19:14.949Z,3.00
2022-10-18T07:21:42.022Z,3.22
2022-10-18T07:24:09.097Z,3.05
2022-10-18T07:26:36.363Z,3.03
2022-10-18T07:29:08.183Z,2.95
2022-10-18T07:31:35.749Z,2.73
2022-10-18T07:34:04.978Z,2.90
2022-10-18T07:36:32.058Z,3.33
2022-10-18T07:38:59.637Z,3.05
2022-10-18T07:41:26.883Z,3.50
2022-10-18T07:43:54.256Z,2.60
2022-10-18T07:46:22.197Z,2.53
2022-10-18T07:48:49.794Z,2.75
2022-10-18T07:51:17.339Z,2.85
2022-10-18T07:53:44.677Z,2.80
2022-10-18T07:56:17.016Z,2.90
2022-10-18T07:58:44.978Z,3.08
2022-10-18T08:01:12.633Z,3.33
2022-10-18T08:03:40.129Z,3.17
2022-10-18T08:06:09.494Z,2.67
2022-10-18T08:08:37.634Z,2.67
2022-10-18T08:11:09.596Z,3.22
2022-10-18T08:13:36.994Z,3.20
2022-10-18T08:16:05.967Z,3.20
2022-10-18T08:18:33.079Z,2.90
2022-10-18T08:21:01.135Z,3.05
2022-10-18T08:23:28.431Z,2.53
2022-10-18T08:25:55.522Z,3.30
2022-10-18T08:28:22.667Z,3.20
2022-10-18T08:30:49.727Z,3.72
2022-10-18T08:33:16.835Z,2.80
2022-10-18T08:35:44.181Z,3.28
2022-10-18T08:38:16.554Z,3.05
2022-10-18T08:40:46.166Z,3.05
2022-10-18T08:43:42.418Z,3.03
2022-10-18T08:46:12.264Z,2.95
2022-10-18T08:48:44.632Z,3.42
2022-10-18T08:51:19.405Z,3.15
2022-10-18T08:53:55.199Z,3.10
2022-10-18T08:56:24.395Z,3.00
2022-10-18T08:58:51.543Z,2.83
2022-10-18T09:01:24.378Z,2.83
2022-10-18T09:04:03.363Z,2.47
2022-10-18T09:06:30.410Z,3.08
2022-10-18T09:09:16.485Z,2.58
2022-10-18T09:11:49.802Z,3.05
2022-10-18T09:14:16.907Z,3.00
2022-10-18T09:16:51.382Z,2.88
2022-10-18T09:19:37.067Z,2.80
2022-10-18T09:22:14.310Z,3.03
2022-10-18T09:24:45.282Z,3.17
2022-10-18T09:27:17.093Z,3.00
2022-10-18T09:29:59.220Z,2.93
2022-10-18T09:32:31.673Z,2.63
2022-10-18T09:35:02.168Z,3.30
2022-10-18T09:37:31.325Z,2.95
2022-10-18T09:40:05.023Z,2.65
2022-10-18T09:42:35.660Z,2.83
2022-10-18T09:45:04.370Z,3.08
2022-10-18T09:47:35.538Z,3.40
2022-10-18T09:50:04.284Z,3.55
2022-10-18T09:52:40.176Z,3.10
2022-10-18T09:55:14.096Z,3.25
2022-10-18T09:57:43.542Z,2.78
2022-10-18T10:00:16.124Z,3.03
2022-10-18T10:02:43.251Z,3.05
2022-10-18T10:05:14.210Z,3.90
2022-10-18T10:07:45.793Z,3.75
2022-10-18T10:10:23.892Z,3.47
2022-10-18T10:13:09.519Z,4.10
2022-10-18T10:15:39.357Z,3.70
2022-10-18T10:18:20.268Z,3.70
2022-10-18T10:20:57.925Z,3.30
2022-10-18T10:23:39.503Z,3.10
2022-10-18T10:26:25.537Z,3.38
2022-10-18T10:28:52.941Z,3.00
2022-10-18T10:31:28.070Z,2.83
2022-10-18T10:34:04.067Z,3.28
2022-10-18T10:36:31.803Z,3.00
2022-10-18T10:39:06.893Z,3.10
2022-10-18T10:41:34.698Z,2.75
2022-10-18T10:44:03.330Z,2.50
2022-10-18T10:46:37.124Z,2.78
2022-10-18T10:49:38.128Z,2.47
2022-10-18T10:52:08.303Z,2.70
2022-10-18T10:54:38.842Z,2.50
2022-10-18T10:57:12.615Z,2.45
2022-10-18T10:59:44.520Z,2.60
2022-10-18T11:02:23.514Z,2.90
2022-10-18T11:04:51.874Z,2.80
2022-10-18T11:07:34.199Z,2.80
2022-10-18T11:10:04.137Z,2.75
2022-10-18T11:12:34.121Z,3.30
2022-10-18T11:15:11.925Z,2.80
2022-10-18T11:17:57.700Z,2.30
2022-10-18T11:20:27.803Z,3.95
2022-10-18T11:23:00.560Z,2.97
2022-10-18T11:25:44.535Z,2.80
2022-10-18T11:28:34.928Z,2.85
2022-10-18T11:31:10.855Z,2.55
2022-10-18T11:34:07.176Z,2.75
2022-10-18T11:36:27.981Z,3.33
2022-10-18T11:39:01.993Z,3.03
2022-10-18T11:41:55.261Z,3.25
2022-10-18T11:44:22.350Z,3.40
2022-10-18T11:46:52.498Z,3.83
2022-10-18T11:49:42.174Z,3.20
2022-10-18T11:52:09.565Z,3.72
2022-10-18T11:57:20.214Z,3.58
2022-10-18T11:59:53.223Z,3.63
2022-10-18T12:02:30.560Z,3.70
2022-10-18T12:07:57.515Z,3.05
2022-10-18T12:10:37.867Z,3.60
2022-10-18T12:13:17.039Z,3.40
2022-10-18T12:15:44.418Z,3.40
2022-10-18T12:18:14.054Z,3.63
2022-10-18T12:20:44.241Z,3.53
2022-10-18T12:23:20.902Z,3.33
2022-10-18T12:25:53.530Z,3.50
2022-10-18T12:28:36.273Z,3.42
2022-10-18T12:31:09.611Z,2.90
2022-10-18T12:33:38.615Z,3.53
2022-10-18T12:36:24.242Z,2.85
2022-10-18T12:38:54.462Z,2.60
2022-10-18T12:41:24.138Z,2.72
2022-10-18T12:43:55.623Z,3.65
2022-10-18T12:46:23.013Z,2.97
2022-10-18T12:49:00.961Z,2.95
2022-10-18T12:51:28.226Z,2.70
2022-10-18T12:54:01.475Z,3.30
2022-10-18T12:56:28.562Z,3.58
2022-10-18T12:59:15.919Z,3.67
2022-10-18T13:01:52.104Z,3.78
2022-10-18T13:04:28.546Z,3.60
2022-10-18T13:06:58.545Z,4.03
2022-10-18T13:09:31.433Z,3.85
2022-10-18T13:12:10.493Z,3.10
2022-10-18T13:14:53.440Z,3.17
2022-10-18T13:20:20.527Z,2.78
2022-10-18T13:22:53.952Z,3.25
2022-10-18T13:25:36.179Z,2.65
2022-10-18T13:28:07.026Z,2.97
2022-10-18T13:30:57.370Z,2.42
2022-10-18T13:33:33.400Z,2.85
2022-10-18T13:36:00.551Z,2.75
2022-10-18T13:38:37.318Z,2.20
2022-10-18T13:41:21.642Z,2.40
2022-10-18T13:43:54.556Z,2.55
2022-10-18T13:46:33.635Z,3.30
2022-10-18T13:49:20.082Z,2.55
2022-10-18T13:51:56.176Z,23.38
2022-10-18T13:54:35.265Z,3.72
2022-10-18T13:57:14.528Z,2.55
2022-10-18T14:00:00.260Z,2.58
2022-10-18T14:03:03.294Z,2.30
2022-10-18T14:08:00.567Z,2.33
2022-10-18T14:10:50.301Z,2.35
2022-10-18T14:13:25.906Z,2.35
2022-10-18T14:15:55.427Z,2.25
2022-10-18T14:18:31.813Z,2.35
2022-10-18T14:21:13.451Z,2.55
2022-10-18T14:23:44.629Z,2.25
2022-10-18T14:26:19.567Z,2.63
2022-10-18T14:29:01.968Z,2.40
2022-10-18T14:31:29.254Z,2.20
2022-10-18T14:33:58.587Z,2.40
2022-10-18T14:36:27.742Z,2.90
2022-10-18T14:38:54.826Z,2.60
2022-10-18T14:41:28.938Z,3.05
2022-10-18T14:44:14.679Z,2.80
2022-10-18T14:46:46.334Z,3.45
2022-10-18T14:49:14.177Z,5.47
2022-10-18T14:51:42.609Z,2.78
2022-10-18T14:54:16.823Z,2.38
2022-10-18T14:56:44.417Z,2.95
2022-10-18T14:59:15.321Z,2.92
2022-10-18T15:01:51.343Z,2.10
2022-10-18T15:04:18.464Z,2.30
2022-10-18T15:06:45.620Z,2.67
2022-10-18T15:09:13.691Z,2.22
2022-10-18T15:11:41.822Z,2.53
2022-10-18T15:14:13.774Z,2.53
2022-10-18T15:16:41.562Z,2.70
2022-10-18T15:19:14.671Z,2.63
2022-10-18T15:22:08.076Z,3.10
2022-10-18T15:24:42.013Z,2.78
2022-10-18T15:27:15.176Z,3.33
2022-10-18T15:29:43.772Z,3.10
2022-10-18T15:32:15.998Z,3.60
2022-10-18T15:34:43.143Z,3.33
2022-10-18T15:37:32.095Z,2.70
2022-10-18T15:40:18.366Z,3.25
2022-10-18T15:42:45.546Z,4.50
2022-10-18T15:45:24.614Z,4.20
2022-10-18T15:48:01.855Z,4.43
2022-10-18T15:50:42.733Z,3.85
2022-10-18T15:53:25.198Z,3.80
2022-10-18T15:55:55.200Z,3.55
2022-10-18T15:58:23.870Z,3.90
2022-10-18T16:00:51.864Z,3.60
2022-10-18T16:03:19.999Z,3.53
2022-10-18T16:05:47.099Z,3.60
2022-10-18T16:08:19.166Z,3.83
2022-10-18T16:10:46.336Z,3.83
2022-10-18T16:13:13.442Z,4.90
2022-10-18T16:15:40.596Z,8.48
2022-10-18T16:18:07.663Z,3.70
2022-10-18T16:20:34.822Z,4.43
2022-10-18T16:23:02.108Z,4.63
2022-10-18T16:25:29.169Z,5.45
2022-10-18T16:27:56.317Z,4.82
2022-10-18T16:30:24.334Z,11.35
2022-10-18T16:32:51.422Z,7.28
2022-10-18T16:35:18.547Z,4.80
2022-10-18T16:37:45.658Z,4.50
2022-10-18T16:40:23.523Z,4.40
2022-10-18T16:42:50.625Z,4.97
2022-10-18T16:45:18.150Z,4.38
2022-10-18T16:47:45.447Z,4.57
2022-10-18T16:50:16.973Z,4.90
2022-10-18T16:52:44.390Z,4.40
2022-10-18T16:55:20.974Z,4.53
2022-10-18T16:57:48.357Z,4.30
2022-10-18T17:00:18.344Z,4.00
2022-10-18T17:02:45.509Z,4.00
2022-10-18T17:05:12.646Z,4.18
2022-10-18T17:07:39.758Z,4.40
2022-10-18T17:10:07.082Z,5.07
2022-10-18T17:12:34.376Z,4.57
2022-10-18T17:15:01.666Z,4.60
2022-10-18T17:17:28.890Z,4.63
2022-10-18T17:19:56.369Z,5.43
2022-10-18T17:22:23.640Z,4.80
2022-10-18T17:24:50.872Z,5.70
2022-10-18T17:27:19.067Z,6.22
2022-10-18T17:29:46.274Z,6.43
2022-10-18T17:32:13.737Z,7.78
2022-10-18T17:37:13.610Z,6.38
2022-10-18T17:39:40.725Z,6.15
2022-10-18T17:42:07.818Z,5.00
2022-10-18T17:44:34.944Z,5.85
2022-10-18T17:47:02.022Z,5.88
2022-10-18T17:49:29.309Z,7.07
2022-10-18T17:51:56.475Z,8.63
2022-10-18T17:54:23.566Z,8.07
2022-10-18T17:56:54.493Z,7.68
2022-10-18T17:59:21.745Z,6.45
2022-10-18T18:01:48.926Z,5.75
2022-10-18T18:04:17.032Z,5.90
2022-10-18T18:06:45.386Z,6.25
2022-10-18T18:09:14.871Z,5.90
2022-10-18T18:11:43.729Z,6.50
2022-10-18T18:14:11.417Z,5.90
2022-10-18T18:16:39.703Z,5.45
2022-10-18T18:19:09.674Z,5.43
2022-10-18T18:21:37.422Z,4.72
2022-10-18T18:24:04.660Z,4.50
2022-10-18T18:26:32.612Z,4.63
2022-10-18T18:28:59.987Z,5.05
2022-10-18T18:31:30.725Z,5.40
2022-10-18T18:34:01.513Z,5.80
2022-10-18T18:36:29.195Z,5.63
2022-10-18T18:38:57.808Z,5.65
2022-10-18T18:41:25.932Z,5.80
2022-10-18T18:43:54.471Z,6.03
2022-10-18T18:46:22.532Z,6.55
2022-10-18T18:48:49.987Z,6.25
2022-10-18T18:51:18.124Z,6.05
2022-10-18T18:53:46.426Z,6.60
2022-10-18T18:56:24.150Z,5.35
2022-10-18T18:58:52.096Z,5.45
2022-10-18T19:01:19.409Z,6.43
2022-10-18T19:03:47.431Z,5.60
2022-10-18T19:06:19.019Z,5.85
2022-10-18T19:08:46.466Z,6.55
2022-10-18T19:11:15.003Z,6.07
2022-10-18T19:13:42.481Z,6.43
2022-10-18T19:16:18.840Z,6.50
2022-10-18T19:18:52.588Z,5.60
2022-10-18T19:21:20.037Z,6.72
2022-10-18T19:23:47.236Z,5.88
2022-10-18T19:26:32.135Z,6.43
2022-10-18T19:29:04.079Z,7.03
2022-10-18T19:31:31.244Z,8.02
2022-10-18T19:33:59.661Z,7.53
2022-10-18T19:36:26.997Z,7.47
2022-10-18T19:38:54.083Z,8.73
2022-10-18T19:41:21.591Z,7.90
2022-10-18T19:43:48.744Z,9.32
2022-10-18T19:46:15.831Z,9.00
2022-10-18T19:48:42.951Z,9.15
2022-10-18T19:51:17.388Z,8.65
2022-10-18T19:53:48.282Z,7.88
2022-10-18T19:56:19.973Z,7.80
2022-10-18T19:58:47.125Z,7.55
2022-10-18T20:01:14.548Z,8.32
2022-10-18T20:03:41.702Z,8.00
2022-10-18T20:06:08.955Z,8.88
2022-10-18T20:08:36.477Z,9.30
2022-10-18T20:11:05.254Z,8.55
2022-10-18T20:13:32.342Z,8.65
2022-10-18T20:15:59.819Z,9.40
2022-10-18T20:18:27.026Z,8.82
2022-10-18T20:20:54.209Z,10.23
2022-10-18T20:23:21.787Z,10.98
2022-10-18T20:25:57.791Z,10.65
2022-10-18T20:28:25.320Z,11.48
2022-10-18T20:31:05.852Z,11.80
2022-10-18T20:33:33.005Z,13.10
2022-10-18T20:36:04.407Z,13.82
2022-10-18T20:38:32.242Z,13.38
2022-10-18T20:41:02.925Z,12.93
2022-10-18T20:43:30.168Z,14.20
2022-10-18T20:45:58.165Z,14.35
2022-10-18T20:48:25.707Z,14.63
2022-10-18T20:50:53.186Z,14.20
2022-10-18T20:53:22.038Z,15.00
2022-10-18T20:55:49.874Z,15.02
2022-10-18T20:58:17.061Z,16.45
2022-10-18T21:00:44.150Z,15.20
2022-10-18T21:05:39.317Z,15.10
2022-10-18T21:08:06.430Z,15.05
2022-10-18T21:10:33.531Z,14.73
2022-10-18T21:13:00.633Z,15.93
2022-10-18T21:15:27.734Z,16.63
2022-10-18T21:17:54.804Z,15.68
2022-10-18T21:20:22.028Z,16.95
2022-10-18T21:22:49.139Z,14.18
2022-10-18T21:25:16.311Z,14.40
2022-10-18T21:27:45.037Z,15.23
2022-10-18T21:32:44.702Z,15.45
2022-10-18T21:35:12.019Z,16.15
2022-10-18T21:37:39.099Z,15.13
2022-10-18T21:40:06.528Z,15.68
2022-10-18T21:42:33.809Z,15.43
2022-10-18T21:45:01.117Z,14.35
2022-10-18T21:47:28.253Z,14.95
2022-10-18T21:49:55.326Z,13.75
2022-10-18T21:52:22.450Z,15.00
2022-10-18T21:54:49.525Z,13.65
2022-10-18T21:57:16.602Z,13.98
2022-10-18T21:59:43.757Z,12.85
2022-10-18T22:02:10.825Z,13.98
2022-10-18T22:04:38.110Z,14.48
2022-10-18T22:07:05.309Z,14.73
2022-10-18T22:09:32.510Z,13.32
2022-10-18T22:11:59.674Z,14.02
2022-10-18T22:14:26.866Z,12.85
2022-10-18T22:16:54.044Z,14.13
2022-10-18T22:19:21.181Z,13.77
2022-10-18T22:21:48.275Z,14.50
2022-10-18T22:24:15.554Z,13.15
2022-10-18T22:26:43.389Z,13.90
2022-10-18T22:29:15.026Z,14.45
2022-10-18T22:31:43.726Z,13.57
2022-10-18T22:34:15.271Z,14.73
2022-10-18T22:36:42.642Z,14.40
2022-10-18T22:39:10.275Z,12.85
2022-10-18T22:41:37.330Z,13.13
2022-10-18T22:44:04.426Z,13.35
2022-10-18T22:46:32.563Z,13.25
2022-10-18T22:48:59.773Z,12.82
2022-10-18T22:51:26.941Z,13.13
2022-10-18T22:53:54.086Z,12.02
2022-10-18T22:56:21.973Z,13.02
2022-10-18T22:58:49.262Z,13.23
2022-10-18T23:01:20.877Z,14.82
2022-10-18T23:03:52.332Z,16.45
2022-10-18T23:06:21.376Z,15.60
2022-10-18T23:08:48.592Z,16.20
2022-10-18T23:11:15.927Z,16.70
2022-10-18T23:13:43.010Z,17.50
2022-10-18T23:16:10.147Z,15.63
2022-10-18T23:21:13.838Z,15.43
2022-10-18T23:23:41.845Z,16.10
2022-10-18T23:26:12.164Z,15.05
2022-10-18T23:28:40.383Z,14.93
2022-10-18T23:31:12.762Z,13.95
2022-10-18T23:33:40.367Z,14.48
2022-10-18T23:36:08.336Z,13.88
2022-10-18T23:38:36.134Z,13.05
2022-10-18T23:41:03.331Z,12.20
2022-10-18T23:43:30.465Z,14.07
2022-10-18T23:45:57.569Z,13.45
2022-10-18T23:48:24.767Z,13.75
2022-10-18T23:50:52.038Z,12.20
2022-10-18T23:53:19.736Z,11.07
2022-10-18T23:56:00.363Z,13.82
2022-10-18T23:58:28.206Z,11.30
